• Join FlightAware (Why Join?)
  • Login
  • US Flag 
02:16PM EDT


 

Airport Tracker/Info


-or-


 

Live Flight TrackerFlight Track Log ✈ JBU51 ✈ 02-May-2013 ✈ KBTV - KJFK

Flight Track Log - Related Links

Times and Time Zones

All times are in EDT time to prevent confusion due to time zone crossing. See the JBU51 flight status page for this flight to view local times or setup timezone preferences in your user account.

Time Position Orientation Groundspeed Altitude Reporting Facility
EDT Latitude Longitude Course Direction KTS MPH feet Rate Location/Type
11:30AM 44.2131 -73.2369 216° Southwest  Level FlightAware Approximate
11:30AM 44.3536 -73.0092 196° South 264 304 8,400  Level Boston Center
11:31AM 44.1312 -73.2758 195° South  Level FlightAware Approximate
11:31AM 44.2575 -73.0575 200° South 275 316 11,100  Level Boston Center
11:32AM 44.0467 -73.3067 194° South  Level FlightAware Approximate
11:32AM 44.1636 -73.1058 200° South 335 386 13,500  Level Boston Center
11:33AM 43.9618 -73.3350 193° South  Level FlightAware Approximate
11:33AM 44.0592 -73.1564 199° South 384 442 16,200  Level Boston Center
11:34AM 43.8774 -73.3658 196° South  Level FlightAware Approximate
11:34AM 43.9567 -73.2100 201° Southwest 393 452 18,200  Level Boston Center
11:35AM 43.7935 -73.3995 196° South  Level FlightAware Approximate
11:35AM 43.8561 -73.2606 200° South 413 475 20,500  Level Boston Center
11:36AM 43.7096 -73.4330 196° South  Level FlightAware Approximate
11:36AM 43.7433 -73.3167 200° South 419 482 22,500  Level Boston Center
11:37AM 43.6136 -73.3806 200° South 439 505 24,500 1,800 Climbing Boston Center
11:38AM 43.4944 -73.4389 200° South 451 519 26,200 1,560 Climbing Boston Center
11:39AM 43.3708 -73.4997 200° South 456 525 27,700 900 Climbing Boston Center
11:40AM 43.2494 -73.5575 199° South 468 539 28,000 120 Climbing Boston Center
11:41AM 43.1236 -73.6233 201° Southwest 468 539 28,000  Level Boston Center
11:42AM 43.0022 -73.6808 199° South 468 539 28,000  Level Boston Center
11:43AM 42.8786 -73.7406 199° South 468 539 28,000 -180 Level Boston Center
11:44AM 42.7528 -73.8003 199° South 468 539 27,700 -900 Descending Boston Center
11:45AM 42.6233 -73.8114 184° South 461 531 26,300 -780 Descending Boston Center
11:47AM 42.4733 -73.8136 181° South 461 531 26,000 -180 Descending Boston Center
11:48AM 42.3442 -73.8136 180° South 461 531 26,000  Level Boston Center
11:49AM 42.2147 -73.8192 182° South 461 531 26,000  Level Boston Center
11:50AM 42.0878 -73.8247 182° South 461 531 26,000  Level Boston Center
11:51AM 41.9600 -73.8694 195° South 461 531 26,000  Level Boston Center
11:52AM 41.7333 -73.9428 194° South 475 547 26,000 -720 Level New York Center
11:53AM 41.6092 -73.9867 195° South 475 547 24,100 -2,040 Descending New York Center
11:54AM 41.5064 -74.0206 194° South 463 533 22,000 -2,040 Descending New York Center
11:55AM 41.3925 -74.0675 197° South 444 511 20,000 -1,020 Descending New York Center
11:56AM 41.2947 -74.1428 210° Southwest 424 488 20,000  Level New York Center
11:57AM 41.1797 -74.1589 186° South 418 481 20,000 -300 Level New York Center
11:58AM 41.0633 -74.1478 176° South 412 474 19,500 -540 Descending New York Center
11:59AM 40.9500 -74.1333 175° South 375 432 19,000 -300 Descending New York TRACON
12:00PM 40.8833 -74.0500 137° Southeast 328 377 19,000 -600 Level New York TRACON
12:01PM 40.8333 -73.9500 123° Southeast 320 368 17,900 -1,500 Descending New York TRACON
12:02PM 40.7833 -73.8500 123° Southeast 313 360 16,100 -1,740 Descending New York TRACON
12:03PM 40.7500 -73.7667 118° Southeast 319 367 14,600 -1,800 Descending New York TRACON
12:04PM 40.6833 -73.6833 137° Southeast 338 389 12,500 -1,740 Descending New York TRACON
12:05PM 40.6167 -73.6500 159° South 334 384 11,200 -1,560 Descending New York TRACON
12:06PM 40.5333 -73.6333 171° South 290 334 9,600 -1,620 Descending New York TRACON
12:07PM 40.4500 -73.6667 197° South 301 346 8,000 -1,020 Descending New York TRACON
12:08PM 40.3833 -73.7333 217° Southwest 297 342 7,600 -1,080 Descending New York TRACON
12:09PM 40.3167 -73.7833 210° Southwest 291 335 5,900 -1,080 Descending New York TRACON
12:10PM 40.3000 -73.8833 258° West 267 307 5,500 -720 Descending New York TRACON
12:11PM 40.3167 -73.9500 288° West 246 283 4,600 -900 Descending New York TRACON
12:11PM 40.3289 -73.9644 318° Northwest 236 272 4,500 -840 Descending New York Center
12:12PM 40.3733 -74.0103 322° Northwest 193 222 3,600 -900 Descending New York Center
12:13PM 40.4167 -74.0167 354° North 180 207 3,000 -360 Descending New York TRACON
12:14PM 40.4667 -74.0167 360° North 178 205 3,000  Level New York TRACON
12:15PM 40.5000 -73.9833 37° Northeast 175 201 3,000  Level New York TRACON
12:16PM 40.5333 -73.9500 37° Northeast 174 200 3,000 -60 Level New York TRACON
12:17PM 40.5833 -73.9167 27° Northeast 174 200 2,900 -540 Descending New York TRACON
12:18PM 40.6333 -73.8833 27° Northeast 180 207 1,900 -900 Descending New York TRACON
12:19PM 40.6667 -73.8500 37° Northeast 149 171 1,200 -780 Descending New York TRACON